CheckWX is a tool to help pilots better visualize weather data.  It is not intended as a substitute for an official pre-flight weather briefing.

23:43:39 UTC

KCIR METAR
Cairo Regional Airport
Cairo, Illinois, USA
Current

29 mins ago

KCIR 242315Z AUTO 17007KT 10SM CLR 31/20 A3002 RMK AO2 T03050201
Observed
May-24 @ 23:15 UTC
Wind
  • 170° at 7 KTS
Visibility
10 SM
Flight Rules
VFR
Cloud Levels
  • Clear skies
Temperature
31°C / 88°F
Dewpoint
20°C / 68°F
Heat Index
33°C / 92°F
Humidity
52%
Altimeter
30.02" Hg
Pressure
1016.62 hPa
Previous

49 mins ago

KCIR 242255Z AUTO 18005KT 10SM CLR 31/20 A3003 RMK AO2 T03070203
Observed
May-24 @ 22:55 UTC
Wind
  • 180° at 5 KTS
Visibility
10 SM
Flight Rules
VFR
Cloud Levels
  • Clear skies
Temperature
31°C / 88°F
Dewpoint
20°C / 68°F
Heat Index
33°C / 92°F
Humidity
52%
Altimeter
30.03" Hg
Pressure
1016.92 hPa
Previous

1 hour ago

KCIR 242235Z AUTO 19005KT 10SM SCT060 31/20 A3004 RMK AO2 T03110204
Observed
May-24 @ 22:35 UTC
Wind
  • 190° at 5 KTS
Visibility
10 SM
Flight Rules
VFR
Cloud Levels
  • Scattered at 6,000' AGL
Temperature
31°C / 88°F
Dewpoint
20°C / 68°F
Heat Index
33°C / 92°F
Humidity
52%
Altimeter
30.04" Hg
Pressure
1017.32 hPa